createdAt,value
2022-09-07T00:01:16.105Z,99.90
2022-09-07T00:03:44.439Z,99.90
2022-09-07T00:06:14.817Z,99.90
2022-09-07T00:08:44.718Z,99.90
2022-09-07T00:11:15.371Z,99.90
2022-09-07T00:13:45.145Z,99.90
2022-09-07T00:16:17.616Z,99.90
2022-09-07T00:18:46.742Z,99.90
2022-09-07T00:21:16.955Z,99.90
2022-09-07T00:23:46.287Z,99.90
2022-09-07T00:26:16.598Z,99.90
2022-09-07T00:28:47.515Z,99.90
2022-09-07T00:31:19.723Z,99.90
2022-09-07T00:33:49.253Z,99.90
2022-09-07T00:36:18.436Z,99.90
2022-09-07T00:38:47.400Z,99.90
2022-09-07T00:41:17.498Z,99.90
2022-09-07T00:43:47.593Z,99.90
2022-09-07T00:46:20.077Z,99.90
2022-09-07T00:48:53.223Z,99.90
2022-09-07T00:51:26.173Z,99.90
2022-09-07T00:53:58.997Z,99.90
2022-09-07T00:56:33.237Z,99.90
2022-09-07T00:59:02.394Z,99.90
2022-09-07T01:01:33.601Z,99.90
2022-09-07T01:04:03.823Z,99.90
2022-09-07T01:06:34.741Z,99.90
2022-09-07T01:09:07.729Z,99.90
2022-09-07T01:11:36.492Z,99.90
2022-09-07T01:14:06.799Z,99.90
2022-09-07T01:16:53.038Z,99.90
2022-09-07T01:19:42.261Z,99.90
2022-09-07T01:22:31.329Z,99.90
2022-09-07T01:25:10.430Z,99.90
2022-09-07T01:28:07.661Z,99.90
2022-09-07T01:30:39.106Z,99.90
2022-09-07T01:33:37.529Z,99.90
2022-09-07T01:36:18.775Z,99.90
2022-09-07T01:38:49.044Z,99.90
2022-09-07T01:41:22.689Z,99.90
2022-09-07T01:43:59.025Z,99.90
2022-09-07T01:46:30.371Z,99.90
2022-09-07T01:49:05.077Z,99.90
2022-09-07T01:51:37.193Z,99.90
2022-09-07T01:54:12.208Z,99.90
2022-09-07T01:56:44.745Z,99.90
2022-09-07T01:59:22.694Z,99.90
2022-09-07T02:01:56.323Z,99.90
2022-09-07T02:04:32.400Z,99.90
2022-09-07T02:07:08.102Z,99.90
2022-09-07T02:09:42.409Z,99.90
2022-09-07T02:12:17.087Z,99.90
2022-09-07T02:14:52.778Z,99.90
2022-09-07T02:17:28.992Z,99.90
2022-09-07T02:20:04.809Z,99.90
2022-09-07T02:22:38.912Z,99.90
2022-09-07T02:25:08.735Z,99.90
2022-09-07T02:27:42.646Z,99.90
2022-09-07T02:30:14.033Z,99.90
2022-09-07T02:32:42.828Z,99.90
2022-09-07T02:35:11.537Z,99.90
2022-09-07T02:37:41.171Z,99.90
2022-09-07T02:40:10.864Z,99.90
2022-09-07T02:42:40.662Z,99.90
2022-09-07T02:45:13.871Z,99.90
2022-09-07T02:47:54.899Z,99.90
2022-09-07T02:50:38.702Z,99.90
2022-09-07T02:53:29.025Z,99.90
2022-09-07T02:56:08.712Z,99.90
2022-09-07T02:58:47.230Z,99.90
2022-09-07T03:01:27.612Z,99.90
2022-09-07T03:04:07.245Z,99.90
2022-09-07T03:06:42.329Z,99.90
2022-09-07T03:09:15.012Z,99.90
2022-09-07T03:11:43.590Z,99.90
2022-09-07T03:14:16.600Z,99.90
2022-09-07T03:16:47.685Z,99.90
2022-09-07T03:19:16.136Z,99.90
2022-09-07T03:21:44.509Z,99.90
2022-09-07T03:24:12.817Z,99.90
2022-09-07T03:26:44.386Z,99.90
2022-09-07T03:29:12.721Z,99.90
2022-09-07T03:31:41.110Z,99.90
2022-09-07T03:34:11.610Z,99.90
2022-09-07T03:36:40.329Z,99.90
2022-09-07T03:39:08.966Z,99.90
2022-09-07T03:41:37.317Z,99.90
2022-09-07T03:44:06.740Z,99.90
2022-09-07T03:46:36.162Z,99.90
2022-09-07T03:49:04.797Z,99.90
2022-09-07T03:51:34.421Z,99.90
2022-09-07T03:54:03.130Z,99.90
2022-09-07T03:56:31.664Z,99.90
2022-09-07T03:59:00.037Z,99.90
2022-09-07T04:01:29.424Z,99.90
2022-09-07T04:04:02.717Z,99.90
2022-09-07T04:06:32.262Z,99.90
2022-09-07T04:09:05.998Z,99.90
2022-09-07T04:11:34.809Z,99.90
2022-09-07T04:14:03.252Z,99.90
2022-09-07T04:16:31.907Z,99.90
2022-09-07T04:19:00.438Z,99.90
2022-09-07T04:21:31.008Z,99.90
2022-09-07T04:24:00.050Z,99.90
2022-09-07T04:26:31.845Z,99.90
2022-09-07T04:29:01.116Z,99.90
2022-09-07T04:31:29.573Z,99.90
2022-09-07T04:33:58.473Z,99.90
2022-09-07T04:36:26.812Z,99.90
2022-09-07T04:38:59.832Z,99.90
2022-09-07T04:41:31.087Z,99.90
2022-09-07T04:44:02.011Z,99.90
2022-09-07T04:46:33.586Z,99.90
2022-09-07T04:49:05.139Z,99.90
2022-09-07T04:51:34.048Z,99.90
2022-09-07T04:54:04.048Z,99.90
2022-09-07T04:56:34.530Z,99.90
2022-09-07T04:59:04.021Z,99.90
2022-09-07T05:01:32.905Z,99.90
2022-09-07T05:04:02.726Z,99.90
2022-09-07T05:06:31.392Z,99.90
2022-09-07T05:09:00.474Z,99.90
2022-09-07T05:11:30.262Z,99.90
2022-09-07T05:14:01.518Z,99.90
2022-09-07T05:16:31.449Z,99.90
2022-09-07T05:19:02.344Z,99.90
2022-09-07T05:21:33.596Z,99.90
2022-09-07T05:24:02.598Z,99.90
2022-09-07T05:26:32.855Z,99.90
2022-09-07T05:31:53.024Z,99.90
2022-09-07T05:36:57.122Z,99.90
2022-09-07T05:39:26.205Z,99.90
2022-09-07T05:41:54.530Z,99.90
2022-09-07T05:47:13.201Z,99.90
2022-09-07T05:49:41.521Z,99.90
2022-09-07T05:52:09.820Z,99.90
2022-09-07T05:54:38.414Z,99.90
2022-09-07T05:57:07.352Z,99.90
2022-09-07T05:59:37.090Z,99.90
2022-09-07T06:02:05.978Z,99.90
2022-09-07T06:04:34.856Z,99.90
2022-09-07T06:07:22.098Z,99.90
2022-09-07T06:12:39.429Z,99.90
2022-09-07T06:15:11.496Z,99.90
2022-09-07T06:17:39.884Z,99.90
2022-09-07T06:20:09.413Z,99.90
2022-09-07T06:22:37.997Z,99.90
2022-09-07T06:25:07.294Z,99.90
2022-09-07T06:27:35.689Z,99.90
2022-09-07T06:30:04.465Z,99.90
2022-09-07T06:32:45.245Z,99.90
2022-09-07T06:35:14.864Z,99.90
2022-09-07T06:37:43.307Z,99.90
2022-09-07T06:40:12.533Z,99.90
2022-09-07T06:42:41.381Z,99.90
2022-09-07T06:45:11.405Z,99.90
2022-09-07T06:47:41.669Z,99.90
2022-09-07T06:50:11.116Z,99.90
2022-09-07T06:55:28.969Z,99.90
2022-09-07T06:57:57.300Z,99.90
2022-09-07T07:00:25.700Z,99.90
2022-09-07T07:02:55.969Z,99.90
2022-09-07T07:05:24.283Z,99.90
2022-09-07T07:07:52.517Z,99.90
2022-09-07T07:10:24.556Z,99.90
2022-09-07T07:12:57.571Z,99.90
2022-09-07T07:15:28.799Z,99.90
2022-09-07T07:18:09.271Z,99.90
2022-09-07T07:20:47.347Z,99.90
2022-09-07T07:23:15.633Z,99.90
2022-09-07T07:25:44.538Z,99.90
2022-09-07T07:31:08.785Z,99.90
2022-09-07T07:33:40.899Z,99.90
2022-09-07T07:36:13.620Z,99.90
2022-09-07T07:44:20.809Z,99.90
2022-09-07T07:46:50.235Z,99.90
2022-09-07T07:49:20.177Z,99.90
2022-09-07T07:54:37.989Z,99.90
2022-09-07T07:57:07.336Z,99.90
2022-09-07T07:59:35.586Z,99.90
2022-09-07T08:02:05.824Z,99.90
2022-09-07T08:04:36.618Z,99.90
2022-09-07T08:07:10.109Z,99.90
2022-09-07T08:09:40.457Z,99.90
2022-09-07T08:12:10.055Z,99.90
2022-09-07T08:14:41.200Z,99.90
2022-09-07T08:17:10.768Z,99.90
2022-09-07T08:19:40.714Z,99.90
2022-09-07T08:22:09.753Z,99.90
2022-09-07T08:24:38.500Z,99.90
2022-09-07T08:27:07.286Z,99.90
2022-09-07T08:29:35.724Z,99.90
2022-09-07T08:32:06.850Z,99.90
2022-09-07T08:34:38.241Z,99.90
2022-09-07T08:37:07.942Z,99.90
2022-09-07T08:39:36.771Z,99.90
2022-09-07T08:42:26.924Z,99.90
2022-09-07T08:45:01.510Z,99.90
2022-09-07T08:47:37.675Z,99.90
2022-09-07T08:50:11.745Z,99.90
2022-09-07T08:52:50.388Z,99.90
2022-09-07T08:55:22.808Z,99.90
2022-09-07T08:57:58.263Z,99.90
2022-09-07T09:00:26.931Z,99.90
2022-09-07T09:05:51.792Z,99.90
2022-09-07T09:08:35.802Z,99.90
2022-09-07T09:11:10.831Z,99.90
2022-09-07T09:13:53.231Z,99.90
2022-09-07T09:16:29.850Z,99.90
2022-09-07T09:19:13.243Z,99.90
2022-09-07T09:21:42.415Z,99.90
2022-09-07T09:24:17.393Z,99.90
2022-09-07T09:29:22.085Z,99.90
2022-09-07T09:31:50.418Z,99.90
2022-09-07T09:34:23.834Z,99.90
2022-09-07T09:36:55.880Z,99.90
2022-09-07T09:39:33.758Z,99.90
2022-09-07T09:42:16.251Z,99.90
2022-09-07T09:44:45.678Z,99.90
2022-09-07T09:47:31.056Z,99.90
2022-09-07T09:50:02.834Z,99.90
2022-09-07T09:52:44.937Z,99.90
2022-09-07T09:55:41.147Z,99.90
2022-09-07T10:01:25.346Z,99.90
2022-09-07T10:03:55.811Z,99.90
2022-09-07T10:06:24.982Z,99.90
2022-09-07T10:08:58.464Z,99.90
2022-09-07T10:14:37.469Z,99.90
2022-09-07T10:17:19.927Z,96.60
2022-09-07T10:19:49.739Z,95.50
2022-09-07T10:22:31.159Z,94.30
2022-09-07T10:25:02.423Z,91.80
2022-09-07T10:27:35.266Z,92.20
2022-09-07T10:30:07.020Z,91.40
2022-09-07T10:33:00.912Z,89.80
2022-09-07T10:35:32.201Z,89.10
2022-09-07T10:38:17.638Z,88.90
2022-09-07T10:40:52.283Z,88.40
2022-09-07T10:43:43.379Z,87.70
2022-09-07T10:49:28.643Z,83.60
2022-09-07T10:52:05.470Z,82.20
2022-09-07T10:54:42.748Z,86.20
2022-09-07T10:57:29.931Z,88.30
2022-09-07T11:00:07.884Z,83.80
2022-09-07T11:05:56.048Z,77.50
2022-09-07T11:09:15.710Z,80.00
2022-09-07T11:14:23.329Z,80.00
2022-09-07T11:16:56.671Z,78.80
2022-09-07T11:19:37.872Z,82.60
2022-09-07T11:22:26.558Z,84.70
2022-09-07T11:27:52.359Z,93.80
2022-09-07T11:30:23.705Z,97.40
2022-09-07T11:33:11.214Z,99.20
2022-09-07T11:35:46.041Z,99.90
2022-09-07T11:38:26.617Z,99.90
2022-09-07T11:41:03.841Z,99.90
2022-09-07T11:43:35.499Z,99.80
2022-09-07T11:46:07.319Z,99.50
2022-09-07T11:48:42.765Z,95.90
2022-09-07T11:51:18.975Z,91.70
2022-09-07T11:53:50.662Z,90.50
2022-09-07T11:56:23.205Z,87.20
2022-09-07T11:59:05.561Z,87.70
2022-09-07T12:01:45.694Z,85.90
2022-09-07T12:04:31.653Z,84.40
2022-09-07T12:07:30.691Z,83.00
2022-09-07T12:10:15.400Z,85.50
2022-09-07T12:13:07.251Z,91.50
2022-09-07T12:15:45.664Z,95.00
2022-09-07T12:18:26.846Z,98.50
2022-09-07T12:20:56.496Z,97.20
2022-09-07T12:23:30.666Z,98.30
2022-09-07T12:26:36.492Z,95.30
2022-09-07T12:29:21.072Z,91.20
2022-09-07T12:31:59.790Z,91.30
2022-09-07T12:34:50.501Z,89.30
2022-09-07T12:37:43.561Z,86.20
2022-09-07T12:40:49.954Z,83.70
2022-09-07T12:43:56.805Z,83.20
2022-09-07T12:46:47.046Z,77.80
2022-09-07T12:50:05.105Z,79.20
2022-09-07T12:52:50.969Z,74.30
2022-09-07T12:58:48.846Z,85.70
2022-09-07T13:01:36.865Z,90.00
2022-09-07T13:04:30.102Z,90.70
2022-09-07T13:07:23.100Z,94.50
2022-09-07T13:10:00.656Z,98.10
2022-09-07T13:15:43.003Z,99.90
2022-09-07T13:18:34.105Z,98.00
2022-09-07T13:21:43.616Z,97.50
2022-09-07T13:24:47.293Z,98.30
2022-09-07T13:27:44.848Z,99.90
2022-09-07T13:30:26.171Z,99.90
2022-09-07T13:33:47.564Z,99.90
2022-09-07T13:36:37.277Z,99.90
2022-09-07T13:39:14.025Z,99.90
2022-09-07T13:41:47.424Z,99.90
2022-09-07T13:44:26.255Z,99.90
2022-09-07T13:47:26.640Z,99.90
2022-09-07T13:50:05.682Z,99.90
2022-09-07T13:52:47.292Z,99.90
2022-09-07T13:55:28.029Z,99.90
2022-09-07T13:58:12.462Z,99.90
2022-09-07T14:00:52.329Z,99.90
2022-09-07T14:03:21.850Z,99.90
2022-09-07T14:05:50.122Z,99.90
2022-09-07T14:08:28.372Z,99.90
2022-09-07T14:10:57.840Z,99.90
2022-09-07T14:13:26.067Z,99.90
2022-09-07T14:15:54.441Z,99.90
2022-09-07T14:18:30.896Z,99.90
2022-09-07T14:20:59.201Z,99.90
2022-09-07T14:23:31.054Z,99.90
2022-09-07T14:26:17.223Z,99.90
2022-09-07T14:28:47.578Z,99.90
2022-09-07T14:31:18.192Z,99.90
2022-09-07T14:33:50.780Z,99.90
2022-09-07T14:36:46.506Z,99.90
2022-09-07T14:39:09.224Z,99.90
2022-09-07T14:41:41.680Z,99.90
2022-09-07T14:44:28.632Z,99.90
2022-09-07T14:46:57.543Z,99.90
2022-09-07T14:49:26.241Z,99.90
2022-09-07T14:51:55.674Z,99.90
2022-09-07T14:54:27.699Z,99.90
2022-09-07T14:57:27.409Z,99.90
2022-09-07T14:59:57.331Z,99.90
2022-09-07T15:02:36.662Z,99.90
2022-09-07T15:05:23.730Z,99.90
2022-09-07T15:07:54.370Z,99.90
2022-09-07T15:10:41.743Z,99.90
2022-09-07T15:13:29.708Z,99.90
2022-09-07T15:16:01.386Z,99.90
2022-09-07T15:18:52.482Z,99.90
2022-09-07T15:21:21.330Z,99.90
2022-09-07T15:23:54.065Z,99.90
2022-09-07T15:29:14.269Z,99.90
2022-09-07T15:31:56.754Z,99.90
2022-09-07T15:34:29.764Z,99.90
2022-09-07T15:37:01.040Z,99.90
2022-09-07T15:39:31.195Z,99.90
2022-09-07T15:42:58.933Z,99.90
2022-09-07T15:44:50.312Z,99.90
2022-09-07T15:50:08.688Z,99.90
2022-09-07T15:52:37.234Z,99.90
2022-09-07T15:55:06.601Z,99.90
2022-09-07T15:57:59.331Z,99.90
2022-09-07T16:00:24.725Z,99.90
2022-09-07T16:03:09.275Z,99.90
2022-09-07T16:05:41.697Z,99.90
2022-09-07T16:08:25.841Z,99.90
2022-09-07T16:10:55.581Z,99.90
2022-09-07T16:13:25.126Z,99.90
2022-09-07T16:15:55.328Z,99.90
2022-09-07T16:18:23.534Z,99.90
2022-09-07T16:20:53.336Z,99.90
2022-09-07T16:23:21.846Z,99.90
2022-09-07T16:26:00.635Z,99.90
2022-09-07T16:28:29.766Z,99.90
2022-09-07T16:30:59.420Z,99.90
2022-09-07T16:33:36.069Z,99.90
2022-09-07T16:36:07.403Z,99.90
2022-09-07T16:38:44.492Z,99.90
2022-09-07T16:41:15.082Z,99.90
2022-09-07T16:43:44.067Z,99.90
2022-09-07T16:46:16.081Z,99.90
2022-09-07T16:48:44.952Z,99.90
2022-09-07T16:51:14.881Z,99.90
2022-09-07T16:53:43.672Z,99.90
2022-09-07T16:56:13.900Z,99.90
2022-09-07T16:58:43.975Z,99.90
2022-09-07T17:01:15.853Z,99.90
2022-09-07T17:03:44.341Z,99.90
2022-09-07T17:06:15.246Z,99.90
2022-09-07T17:08:44.226Z,99.90
2022-09-07T17:11:14.215Z,99.90
2022-09-07T17:13:43.547Z,99.90
2022-09-07T17:16:14.735Z,99.90
2022-09-07T17:21:33.688Z,99.90
2022-09-07T17:24:04.179Z,99.90
2022-09-07T17:26:33.313Z,99.90
2022-09-07T17:29:01.671Z,99.90
2022-09-07T17:34:21.806Z,99.90
2022-09-07T17:36:50.607Z,99.90
2022-09-07T17:39:19.883Z,99.90
2022-09-07T17:41:53.204Z,99.90
2022-09-07T17:44:21.749Z,99.90
2022-09-07T17:46:51.275Z,99.90
2022-09-07T17:49:19.544Z,99.90
2022-09-07T17:51:48.334Z,99.90
2022-09-07T17:54:17.917Z,99.90
2022-09-07T17:56:46.919Z,99.90
2022-09-07T18:02:05.401Z,99.90
2022-09-07T18:04:35.809Z,99.90
2022-09-07T18:07:04.884Z,99.90
2022-09-07T18:09:33.538Z,99.90
2022-09-07T18:12:01.712Z,99.90
2022-09-07T18:14:30.229Z,99.90
2022-09-07T18:16:58.718Z,99.90
2022-09-07T18:19:28.482Z,99.90
2022-09-07T18:21:56.669Z,99.90
2022-09-07T18:24:26.117Z,99.90
2022-09-07T18:26:55.466Z,99.90
2022-09-07T18:29:29.200Z,99.90
2022-09-07T18:32:00.094Z,99.90
2022-09-07T18:34:30.936Z,99.90
2022-09-07T18:37:00.026Z,99.90
2022-09-07T18:39:29.213Z,99.90
2022-09-07T18:41:58.207Z,99.90
2022-09-07T18:47:21.474Z,99.90
2022-09-07T18:49:54.634Z,99.90
2022-09-07T18:55:11.845Z,99.90
2022-09-07T18:57:40.339Z,99.90
2022-09-07T19:00:10.570Z,99.90
2022-09-07T19:02:38.894Z,99.90
2022-09-07T19:07:57.261Z,99.90
2022-09-07T19:10:25.489Z,99.90
2022-09-07T19:12:53.954Z,99.90
2022-09-07T19:15:22.092Z,99.90
2022-09-07T19:17:50.333Z,99.90
2022-09-07T19:20:20.173Z,99.90
2022-09-07T19:22:48.833Z,99.90
2022-09-07T19:25:17.762Z,99.90
2022-09-07T19:27:46.087Z,99.90
2022-09-07T19:30:15.555Z,99.90
2022-09-07T19:32:43.646Z,99.90
2022-09-07T19:35:12.175Z,99.90
2022-09-07T19:37:41.693Z,99.90
2022-09-07T19:40:14.768Z,99.90
2022-09-07T19:42:46.716Z,99.90
2022-09-07T19:45:15.991Z,99.90
2022-09-07T19:47:44.327Z,99.90
2022-09-07T19:50:12.615Z,99.90
2022-09-07T19:52:42.829Z,99.90
2022-09-07T19:55:11.167Z,99.90
2022-09-07T19:57:39.290Z,99.90
2022-09-07T20:00:08.873Z,99.90
2022-09-07T20:02:36.987Z,99.90
2022-09-07T20:05:05.406Z,99.90
2022-09-07T20:07:33.510Z,99.90
2022-09-07T20:10:03.003Z,99.90
2022-09-07T20:12:31.073Z,99.90
2022-09-07T20:14:59.297Z,99.90
2022-09-07T20:17:30.627Z,99.90
2022-09-07T20:20:01.345Z,99.90
2022-09-07T20:22:29.657Z,99.90
2022-09-07T20:24:57.801Z,99.90
2022-09-07T20:27:27.586Z,99.90
2022-09-07T20:29:55.675Z,99.90
2022-09-07T20:32:24.613Z,99.90
2022-09-07T20:34:53.300Z,99.90
2022-09-07T20:37:21.905Z,99.90
2022-09-07T20:39:50.135Z,99.90
2022-09-07T20:42:18.955Z,99.90
2022-09-07T20:44:48.481Z,99.90
2022-09-07T20:47:16.563Z,99.90
2022-09-07T20:49:46.183Z,99.90
2022-09-07T20:52:14.790Z,99.90
2022-09-07T20:54:42.867Z,99.90
2022-09-07T20:57:11.546Z,99.90
2022-09-07T20:59:39.658Z,99.90
2022-09-07T21:02:10.342Z,99.90
2022-09-07T21:04:39.033Z,99.90
2022-09-07T21:07:07.138Z,99.90
2022-09-07T21:09:35.210Z,99.90
2022-09-07T21:12:04.014Z,99.90
2022-09-07T21:14:32.143Z,99.90
2022-09-07T21:17:00.346Z,99.90
2022-09-07T21:19:29.958Z,99.90
2022-09-07T21:21:58.119Z,99.90
2022-09-07T21:24:26.309Z,99.90
2022-09-07T21:26:54.886Z,99.90
2022-09-07T21:29:24.395Z,99.90
2022-09-07T21:31:54.465Z,99.90
2022-09-07T21:34:23.578Z,99.90
2022-09-07T21:36:53.678Z,99.90
2022-09-07T21:39:21.917Z,99.90
2022-09-07T21:41:50.554Z,99.90
2022-09-07T21:44:19.009Z,99.90
2022-09-07T21:46:47.522Z,99.90
2022-09-07T21:49:16.057Z,99.90
2022-09-07T21:51:44.142Z,99.90
2022-09-07T21:54:13.750Z,99.90
2022-09-07T21:56:46.484Z,99.90
2022-09-07T21:59:15.309Z,99.90
2022-09-07T22:01:43.659Z,99.90
2022-09-07T22:04:12.153Z,99.90
2022-09-07T22:06:41.142Z,99.90
2022-09-07T22:09:09.593Z,99.90
2022-09-07T22:11:41.138Z,99.90
2022-09-07T22:14:14.425Z,99.90
2022-09-07T22:16:42.527Z,99.90
2022-09-07T22:19:10.742Z,99.90
2022-09-07T22:21:39.381Z,99.90
2022-09-07T22:24:08.043Z,99.90
2022-09-07T22:26:38.992Z,99.90
2022-09-07T22:29:09.297Z,99.90
2022-09-07T22:31:38.247Z,99.90
2022-09-07T22:34:09.127Z,99.90
2022-09-07T22:36:39.919Z,99.90
2022-09-07T22:39:11.326Z,99.90
2022-09-07T22:41:41.759Z,99.90
2022-09-07T22:44:12.709Z,99.90
2022-09-07T22:46:43.063Z,99.90
2022-09-07T22:49:12.346Z,99.90
2022-09-07T22:51:40.810Z,99.90
2022-09-07T22:54:09.162Z,99.90
2022-09-07T22:56:40.318Z,99.90
2022-09-07T22:59:10.420Z,99.90
2022-09-07T23:01:39.191Z,99.90
2022-09-07T23:04:07.560Z,99.90
2022-09-07T23:06:37.770Z,99.90
2022-09-07T23:09:07.906Z,99.90
2022-09-07T23:11:36.054Z,99.90
2022-09-07T23:14:09.746Z,99.90
2022-09-07T23:16:37.985Z,99.90
2022-09-07T23:19:06.188Z,99.90
2022-09-07T23:21:34.576Z,99.90
2022-09-07T23:24:03.274Z,99.90
2022-09-07T23:26:32.703Z,99.90
2022-09-07T23:29:03.340Z,99.90
2022-09-07T23:31:34.680Z,99.90
2022-09-07T23:34:05.422Z,99.90
2022-09-07T23:36:33.825Z,99.90
2022-09-07T23:39:02.645Z,99.90
2022-09-07T23:41:30.781Z,99.90
2022-09-07T23:43:59.294Z,99.90
2022-09-07T23:46:27.482Z,99.90
2022-09-07T23:48:57.137Z,99.90
2022-09-07T23:51:25.551Z,99.90
2022-09-07T23:53:54.098Z,99.90
2022-09-07T23:56:24.718Z,99.90
2022-09-07T23:58:53.268Z,99.90
